createdAt,value
2022-08-10T00:01:13.777Z,100123.59
2022-08-10T00:04:21.351Z,100127.66
2022-08-10T00:07:23.934Z,100119.91
2022-08-10T00:10:26.151Z,100121.53
2022-08-10T00:13:28.242Z,100122.56
2022-08-10T00:16:30.312Z,100120.16
2022-08-10T00:20:02.202Z,100114.97
2022-08-10T00:22:57.825Z,100119.75
2022-08-10T00:26:00.386Z,100109.00
2022-08-10T00:29:02.475Z,100108.75
2022-08-10T00:32:08.903Z,100110.56
2022-08-10T00:35:11.039Z,100111.56
2022-08-10T00:38:13.232Z,100110.97
2022-08-10T00:41:15.321Z,100108.94
2022-08-10T00:44:17.395Z,100102.63
2022-08-10T00:47:36.452Z,100104.81
2022-08-10T00:50:39.704Z,100099.19
2022-08-10T00:53:42.052Z,100111.84
2022-08-10T00:57:15.966Z,100101.97
2022-08-10T01:00:07.572Z,100100.44
2022-08-10T01:03:09.806Z,100100.84
2022-08-10T01:06:33.443Z,100108.31
2022-08-10T01:09:57.113Z,100105.38
2022-08-10T01:13:48.195Z,100110.41
2022-08-10T01:17:17.558Z,100100.19
2022-08-10T01:20:40.264Z,100104.06
2022-08-10T01:24:35.304Z,100106.59
2022-08-10T01:28:03.268Z,100104.50
2022-08-10T01:31:05.387Z,100101.53
2022-08-10T01:34:14.915Z,100105.63
2022-08-10T01:37:24.354Z,100104.97
2022-08-10T01:40:27.452Z,100103.75
2022-08-10T01:43:29.554Z,100105.13
2022-08-10T01:46:31.866Z,100102.13
2022-08-10T01:49:35.694Z,100095.16
2022-08-10T01:52:37.855Z,100101.25
2022-08-10T01:55:39.995Z,100100.66
2022-08-10T01:58:42.629Z,100104.31
2022-08-10T02:02:12.009Z,100106.28
2022-08-10T02:05:15.900Z,100107.75
2022-08-10T02:08:18.060Z,100106.66
2022-08-10T02:11:20.392Z,100107.81
2022-08-10T02:14:22.876Z,100102.03
2022-08-10T02:17:59.460Z,100105.78
2022-08-10T02:21:04.946Z,100103.66
2022-08-10T02:24:08.693Z,100100.81
2022-08-10T02:27:11.447Z,100102.53
2022-08-10T02:30:13.719Z,100100.16
2022-08-10T02:33:16.469Z,100095.41
2022-08-10T02:36:19.302Z,100088.22
2022-08-10T02:39:21.608Z,100088.75
2022-08-10T02:45:23.629Z,100088.97
2022-08-10T02:46:26.350Z,100085.16
2022-08-10T02:49:34.168Z,100081.88
2022-08-10T02:52:45.651Z,100087.75
2022-08-10T02:56:11.006Z,100088.09
2022-08-10T02:59:39.774Z,100087.16
2022-08-10T03:02:46.810Z,100095.44
2022-08-10T03:05:53.702Z,100098.47
2022-08-10T03:08:55.774Z,100097.06
2022-08-10T03:12:34.857Z,100102.28
2022-08-10T03:15:20.894Z,100103.63
2022-08-10T03:18:24.727Z,100105.16
2022-08-10T03:21:27.419Z,100106.63
2022-08-10T03:24:33.262Z,100107.09
2022-08-10T03:27:35.698Z,100099.50
2022-08-10T03:30:37.815Z,100102.66
2022-08-10T03:33:42.718Z,100108.44
2022-08-10T03:36:45.258Z,100101.78
2022-08-10T03:39:47.416Z,100103.28
2022-08-10T03:42:49.485Z,100099.19
2022-08-10T03:45:59.748Z,100094.28
2022-08-10T03:49:02.770Z,100089.97
2022-08-10T03:52:06.506Z,100086.91
2022-08-10T03:55:08.929Z,100085.63
2022-08-10T03:58:12.087Z,100084.31
2022-08-10T04:01:15.827Z,100082.09
2022-08-10T04:04:23.627Z,100084.09
2022-08-10T04:07:26.663Z,100085.69
2022-08-10T04:10:28.931Z,100084.34
2022-08-10T04:13:31.111Z,100079.75
2022-08-10T04:16:33.266Z,100079.75
2022-08-10T04:19:42.894Z,100080.94
2022-08-10T04:22:50.265Z,100080.34
2022-08-10T04:25:52.716Z,100079.59
2022-08-10T04:28:54.840Z,100075.22
2022-08-10T04:31:56.910Z,100073.78
2022-08-10T04:34:59.015Z,100075.06
2022-08-10T04:38:02.156Z,100067.75
2022-08-10T04:41:04.240Z,100075.06
2022-08-10T04:44:06.364Z,100071.34
2022-08-10T04:47:08.437Z,100064.63
2022-08-10T04:50:13.054Z,100070.22
2022-08-10T04:53:18.579Z,100069.53
2022-08-10T04:56:20.644Z,100066.41
2022-08-10T04:59:33.458Z,100058.25
2022-08-10T05:02:35.583Z,100068.47
2022-08-10T05:05:37.706Z,100067.78
2022-08-10T05:08:39.819Z,100066.06
2022-08-10T05:11:41.936Z,100061.84
2022-08-10T05:14:44.010Z,100057.34
2022-08-10T05:18:08.258Z,100055.28
2022-08-10T05:21:08.611Z,100053.59
2022-08-10T05:24:10.672Z,100057.16
2022-08-10T05:27:12.726Z,100057.03
2022-08-10T05:30:20.395Z,100049.44
2022-08-10T05:33:22.515Z,100050.19
2022-08-10T05:36:25.155Z,100050.44
2022-08-10T05:39:31.795Z,100050.72
2022-08-10T05:42:34.833Z,100058.28
2022-08-10T05:46:19.850Z,100052.22
2022-08-10T05:49:01.373Z,100051.75
2022-08-10T05:52:04.397Z,100059.59
2022-08-10T05:55:07.351Z,100051.78
2022-08-10T05:58:09.447Z,100056.00
2022-08-10T06:01:13.568Z,100049.88
2022-08-10T06:04:26.784Z,100051.09
2022-08-10T06:07:29.021Z,100058.56
2022-08-10T06:10:33.045Z,100062.06
2022-08-10T06:13:59.758Z,100059.53
2022-08-10T06:17:15.698Z,100060.41
2022-08-10T06:20:17.837Z,100060.31
2022-08-10T06:23:20.016Z,100056.19
2022-08-10T06:26:22.215Z,100056.22
2022-08-10T06:29:24.368Z,100043.22
2022-08-10T06:32:28.488Z,100047.09
2022-08-10T06:35:32.598Z,100051.34
2022-08-10T06:38:34.825Z,100043.41
2022-08-10T06:42:15.083Z,100044.88
2022-08-10T06:45:12.293Z,100048.59
2022-08-10T06:48:35.664Z,100049.00
2022-08-10T06:51:39.907Z,100054.97
2022-08-10T06:54:42.020Z,100053.03
2022-08-10T06:57:44.122Z,100056.00
2022-08-10T07:01:04.772Z,100052.34
2022-08-10T07:04:16.092Z,100046.13
2022-08-10T07:07:25.631Z,100043.16
2022-08-10T07:10:41.134Z,100043.72
2022-08-10T07:14:16.046Z,100046.41
2022-08-10T07:17:16.866Z,100047.47
2022-08-10T07:20:20.100Z,100051.50
2022-08-10T07:23:57.856Z,100046.41
2022-08-10T07:26:48.873Z,100044.78
2022-08-10T07:29:54.528Z,100055.03
2022-08-10T07:32:57.220Z,100053.41
2022-08-10T07:35:59.301Z,100054.75
2022-08-10T07:39:01.386Z,100048.03
2022-08-10T07:42:04.693Z,100049.34
2022-08-10T07:45:07.300Z,100047.47
2022-08-10T07:48:14.095Z,100049.84
2022-08-10T07:51:18.708Z,100051.78
2022-08-10T07:54:20.987Z,100056.88
2022-08-10T07:57:32.455Z,100059.00
2022-08-10T08:00:35.986Z,100057.91
2022-08-10T08:03:38.062Z,100056.19
2022-08-10T08:06:42.114Z,100053.00
2022-08-10T08:09:57.036Z,100059.53
2022-08-10T08:13:01.466Z,100055.00
2022-08-10T08:16:17.255Z,100048.97
2022-08-10T08:19:28.062Z,100044.22
2022-08-10T08:24:06.418Z,100045.25
2022-08-10T08:25:59.895Z,100040.72
2022-08-10T08:29:04.317Z,100041.00
2022-08-10T08:32:07.475Z,100043.97
2022-08-10T08:35:11.821Z,100039.13
2022-08-10T08:38:31.828Z,100040.91
2022-08-10T08:41:41.665Z,100043.31
2022-08-10T08:45:23.390Z,100042.19
2022-08-10T08:48:58.569Z,100041.63
2022-08-10T08:52:53.648Z,100042.22
2022-08-10T08:56:07.447Z,100036.31
2022-08-10T08:59:59.953Z,100038.56
2022-08-10T09:03:35.605Z,100032.44
2022-08-10T09:07:39.497Z,100034.00
2022-08-10T09:11:09.244Z,100029.69
2022-08-10T09:14:38.657Z,100023.72
2022-08-10T09:18:06.127Z,100022.03
2022-08-10T09:21:27.363Z,100021.16
2022-08-10T09:24:46.542Z,100012.94
2022-08-10T09:27:56.342Z,100006.72
2022-08-10T09:31:22.834Z,99992.50
2022-08-10T09:36:19.399Z,99984.31
2022-08-10T09:38:44.963Z,99992.34
2022-08-10T09:42:14.496Z,99984.88
2022-08-10T09:45:58.483Z,99991.47
2022-08-10T09:49:54.027Z,99989.47
2022-08-10T09:53:44.455Z,99998.97
2022-08-10T09:57:44.421Z,99982.06
2022-08-10T10:00:55.795Z,99986.69
2022-08-10T10:04:36.275Z,99982.09
2022-08-10T10:07:42.267Z,99971.41
2022-08-10T10:11:20.044Z,99978.88
2022-08-10T10:15:24.242Z,99976.19
2022-08-10T10:18:41.891Z,99971.63
2022-08-10T10:22:00.075Z,99976.16
2022-08-10T10:25:51.531Z,99968.41
2022-08-10T10:29:37.723Z,99966.97
2022-08-10T10:32:44.933Z,99966.88
2022-08-10T10:35:56.232Z,99959.28
2022-08-10T10:38:59.018Z,99952.47
2022-08-10T10:42:44.962Z,99956.00
2022-08-10T10:46:30.831Z,99948.53
2022-08-10T10:49:53.325Z,99951.84
2022-08-10T10:53:22.108Z,99945.41
2022-08-10T10:56:33.688Z,99958.25
2022-08-10T10:59:57.652Z,99946.56
2022-08-10T11:03:24.134Z,99941.13
2022-08-10T11:07:10.542Z,99952.56
2022-08-10T11:10:33.107Z,99937.94
2022-08-10T11:14:23.258Z,99931.81
2022-08-10T11:17:46.354Z,99935.03
2022-08-10T11:21:27.917Z,99936.34
2022-08-10T11:24:52.539Z,99930.09
2022-08-10T11:28:18.140Z,99927.06
2022-08-10T11:31:27.757Z,99925.22
2022-08-10T11:35:23.319Z,99919.97
2022-08-10T11:38:57.983Z,99929.13
2022-08-10T11:42:22.518Z,99918.50
2022-08-10T11:45:35.320Z,99914.56
2022-08-10T11:49:08.751Z,99927.69
2022-08-10T11:52:15.162Z,99918.66
2022-08-10T11:55:27.470Z,99912.91
2022-08-10T11:58:53.183Z,99907.34
2022-08-10T12:01:55.317Z,99903.81
2022-08-10T12:05:12.218Z,99898.59
2022-08-10T12:10:05.835Z,99908.88
2022-08-10T12:11:41.588Z,99897.03
2022-08-10T12:15:09.100Z,99896.34
2022-08-10T12:18:35.071Z,99902.13
2022-08-10T12:22:07.635Z,99897.63
2022-08-10T12:25:56.522Z,99897.78
2022-08-10T12:29:10.495Z,99900.16
2022-08-10T12:32:25.433Z,99889.75
2022-08-10T12:36:14.966Z,99882.53
2022-08-10T12:39:31.360Z,99893.16
2022-08-10T12:43:13.217Z,99876.34
2022-08-10T12:47:00.249Z,99880.03
2022-08-10T12:50:33.437Z,99877.09
2022-08-10T12:53:57.234Z,99890.00
2022-08-10T12:57:08.982Z,99876.97
2022-08-10T13:00:17.250Z,99875.22
2022-08-10T13:04:21.570Z,99875.28
2022-08-10T13:06:47.863Z,99869.84
2022-08-10T13:09:55.536Z,99870.47
2022-08-10T13:12:58.629Z,99877.91
2022-08-10T13:16:01.004Z,99860.06
2022-08-10T13:19:03.795Z,99854.78
2022-08-10T13:22:05.967Z,99858.78
2022-08-10T13:25:08.469Z,99859.09
2022-08-10T13:28:37.471Z,99853.81
2022-08-10T13:32:03.897Z,99848.00
2022-08-10T13:34:58.521Z,99845.28
2022-08-10T13:38:02.651Z,99831.31
2022-08-10T13:41:07.107Z,99834.25
2022-08-10T13:44:11.358Z,99824.19
2022-08-10T13:47:17.577Z,99828.91
2022-08-10T13:50:33.055Z,99824.72
2022-08-10T13:53:37.896Z,99832.25
2022-08-10T13:56:44.776Z,99831.22
2022-08-10T14:00:37.449Z,99813.41
2022-08-10T14:03:15.666Z,99813.97
2022-08-10T14:06:19.553Z,99816.34
2022-08-10T14:09:30.098Z,99817.06
2022-08-10T14:12:33.640Z,99817.28
2022-08-10T14:15:38.413Z,99815.22
2022-08-10T14:18:42.311Z,99803.34
2022-08-10T14:21:44.539Z,99800.59
2022-08-10T14:24:46.909Z,99794.78
2022-08-10T14:28:02.204Z,99814.19
2022-08-10T14:31:09.967Z,99791.81
2022-08-10T14:34:12.053Z,99785.28
2022-08-10T14:37:20.083Z,99779.34
2022-08-10T14:40:28.778Z,99782.47
2022-08-10T14:43:54.899Z,99782.84
2022-08-10T14:46:59.090Z,99784.03
2022-08-10T14:50:01.818Z,99764.28
2022-08-10T14:53:18.895Z,99782.56
2022-08-10T14:56:41.999Z,99764.50
2022-08-10T15:00:24.156Z,99764.47
2022-08-10T15:03:10.881Z,99763.25
2022-08-10T15:06:59.792Z,99758.28
2022-08-10T15:10:03.890Z,99758.25
2022-08-10T15:13:07.998Z,99761.63
2022-08-10T15:16:31.634Z,99758.19
2022-08-10T15:20:03.120Z,99748.09
2022-08-10T15:23:05.731Z,99752.47
2022-08-10T15:26:11.306Z,99746.19
2022-08-10T15:29:23.518Z,99751.13
2022-08-10T15:33:11.787Z,99756.38
2022-08-10T15:36:38.268Z,99750.50
2022-08-10T15:40:24.951Z,99755.97
2022-08-10T15:43:20.822Z,99751.75
2022-08-10T15:46:34.092Z,99746.91
2022-08-10T15:49:48.085Z,99749.28
2022-08-10T15:53:00.583Z,99751.97
2022-08-10T15:56:15.687Z,99744.16
2022-08-10T15:59:41.085Z,99754.16
2022-08-10T16:02:55.467Z,99757.94
2022-08-10T16:06:01.501Z,99750.53
2022-08-10T16:10:26.234Z,99753.75
2022-08-10T16:13:00.116Z,99746.34
2022-08-10T16:16:05.527Z,99750.88
2022-08-10T16:19:22.139Z,99750.47
2022-08-10T16:22:36.341Z,99739.69
2022-08-10T16:25:49.763Z,99752.09
2022-08-10T16:29:06.648Z,99753.03
2022-08-10T16:32:09.076Z,99748.09
2022-08-10T16:35:11.407Z,99746.94
2022-08-10T16:38:13.494Z,99742.09
2022-08-10T16:41:20.914Z,99750.97
2022-08-10T16:44:43.852Z,99751.81
2022-08-10T16:47:49.495Z,99742.41
2022-08-10T16:50:54.947Z,99741.03
2022-08-10T16:53:58.399Z,99749.22
2022-08-10T16:57:02.669Z,99724.41
2022-08-10T17:00:09.359Z,99734.66
2022-08-10T17:04:04.652Z,99737.72
2022-08-10T17:06:55.393Z,99731.13
2022-08-10T17:09:58.468Z,99735.69
2022-08-10T17:13:00.986Z,99741.53
2022-08-10T17:16:05.387Z,99740.75
2022-08-10T17:19:17.063Z,99730.00
2022-08-10T17:22:20.856Z,99727.06
2022-08-10T17:25:45.730Z,99728.22
2022-08-10T17:28:52.561Z,99727.41
2022-08-10T17:31:55.636Z,99731.56
2022-08-10T17:34:59.879Z,99725.03
2022-08-10T17:38:11.032Z,99716.97
2022-08-10T17:41:13.555Z,99715.56
2022-08-10T17:44:15.677Z,99722.44
2022-08-10T17:47:18.018Z,99727.56
2022-08-10T17:50:25.983Z,99721.72
2022-08-10T17:53:50.963Z,99732.53
2022-08-10T17:56:53.079Z,99722.34
2022-08-10T17:59:55.181Z,99729.34
2022-08-10T18:02:58.258Z,99726.00
2022-08-10T18:06:06.919Z,99719.91
2022-08-10T18:09:12.067Z,99726.81
2022-08-10T18:12:17.774Z,99732.50
2022-08-10T18:15:25.989Z,99735.16
2022-08-10T18:18:29.271Z,99729.69
2022-08-10T18:21:32.269Z,99738.66
2022-08-10T18:24:35.509Z,99730.91
2022-08-10T18:28:01.206Z,99728.16
2022-08-10T18:31:00.123Z,99729.09
2022-08-10T18:34:02.343Z,99736.00
2022-08-10T18:37:09.127Z,99735.25
2022-08-10T18:40:11.293Z,99741.88
2022-08-10T18:44:07.198Z,99741.16
2022-08-10T18:46:50.304Z,99740.94
2022-08-10T18:50:01.183Z,99736.97
2022-08-10T18:53:12.393Z,99730.97
2022-08-10T18:56:29.543Z,99722.59
2022-08-10T19:00:07.570Z,99725.94
2022-08-10T19:03:47.314Z,99728.38
2022-08-10T19:07:23.045Z,99739.44
2022-08-10T19:11:03.526Z,99728.41
2022-08-10T19:14:18.527Z,99727.97
2022-08-10T19:18:03.051Z,99737.75
2022-08-10T19:21:18.690Z,99725.50
2022-08-10T19:24:49.093Z,99735.78
2022-08-10T19:28:11.050Z,99734.69
2022-08-10T19:31:44.561Z,99735.25
2022-08-10T19:35:23.031Z,99736.13
2022-08-10T19:38:50.829Z,99730.88
2022-08-10T19:42:11.930Z,99732.84
2022-08-10T19:45:56.055Z,99731.47
2022-08-10T19:49:29.384Z,99739.66
2022-08-10T19:53:02.298Z,99730.81
2022-08-10T19:56:33.177Z,99739.66
2022-08-10T20:00:15.285Z,99734.97
2022-08-10T20:03:24.219Z,99739.09
2022-08-10T20:06:43.677Z,99732.25
2022-08-10T20:10:00.491Z,99730.59
2022-08-10T20:13:42.476Z,99727.59
2022-08-10T20:16:46.463Z,99742.34
2022-08-10T20:20:23.980Z,99736.59
2022-08-10T20:23:35.743Z,99737.69
2022-08-10T20:26:53.522Z,99739.94
2022-08-10T20:30:14.230Z,99742.31
2022-08-10T20:33:25.878Z,99749.19
2022-08-10T20:36:40.321Z,99746.72
2022-08-10T20:39:46.899Z,99746.31
2022-08-10T20:43:13.715Z,99744.63
2022-08-10T20:46:29.853Z,99739.66
2022-08-10T20:49:40.841Z,99738.63
2022-08-10T20:52:44.205Z,99734.09
2022-08-10T20:56:32.931Z,99744.22
2022-08-10T21:00:04.502Z,99747.78
2022-08-10T21:03:51.512Z,99749.16
2022-08-10T21:07:59.926Z,99734.31
2022-08-10T21:11:21.756Z,99740.47
2022-08-10T21:14:57.423Z,99746.09
2022-08-10T21:18:28.396Z,99738.69
2022-08-10T21:21:42.076Z,99734.81
2022-08-10T21:24:52.255Z,99733.97
2022-08-10T21:28:33.554Z,99739.69
2022-08-10T21:32:00.116Z,99743.25
2022-08-10T21:35:50.066Z,99743.72
2022-08-10T21:39:41.964Z,99746.88
2022-08-10T21:43:53.171Z,99744.53
2022-08-10T21:48:16.529Z,99750.91
2022-08-10T21:52:00.408Z,99743.88
2022-08-10T21:56:14.533Z,99746.09
2022-08-10T21:59:56.436Z,99747.09
2022-08-10T22:03:19.017Z,99757.00
2022-08-10T22:06:40.631Z,99772.19
2022-08-10T22:10:13.592Z,99771.13
2022-08-10T22:13:37.402Z,99776.13
2022-08-10T22:17:59.842Z,99772.00
2022-08-10T22:20:59.074Z,99775.13
2022-08-10T22:24:22.612Z,99777.19
2022-08-10T22:27:57.729Z,99790.22
2022-08-10T22:31:53.873Z,99781.69
2022-08-10T22:35:31.168Z,99784.72
2022-08-10T22:39:09.170Z,99774.78
2022-08-10T22:42:59.486Z,99779.53
2022-08-10T22:46:34.049Z,99773.44
2022-08-10T22:49:36.063Z,99773.16
2022-08-10T22:53:02.003Z,99771.81
2022-08-10T22:56:23.399Z,99768.81
2022-08-10T22:59:30.375Z,99764.94
2022-08-10T23:02:34.206Z,99769.69
2022-08-10T23:06:07.731Z,99770.31
2022-08-10T23:09:09.815Z,99772.34
2022-08-10T23:12:22.324Z,99767.25
2022-08-10T23:16:16.051Z,99777.47
2022-08-10T23:19:24.677Z,99770.09
2022-08-10T23:22:51.532Z,99762.19
2022-08-10T23:25:56.349Z,99756.97
2022-08-10T23:29:11.836Z,99752.19
2022-08-10T23:32:14.543Z,99758.28
2022-08-10T23:36:30.102Z,99760.22
2022-08-10T23:38:42.434Z,99767.34
2022-08-10T23:41:46.796Z,99754.59
2022-08-10T23:44:57.884Z,99755.84
2022-08-10T23:48:01.314Z,99761.22
2022-08-10T23:51:16.567Z,99762.69
2022-08-10T23:54:19.466Z,99763.41
2022-08-10T23:57:23.082Z,99762.81
